Beverly Hills, CA

5:55 AM PDT on May 26, 2015 (GMT -0700)
CBS Radio Miracle Mile | | Change Station
CLOSE
Current Station
Personal Weather Station
Location: Los Angeles, CA
Elevation: 292 ft
Nearby Weather Stations

Elev 292 ft 34.06 °N, 118.35 °W | Updated 12 seconds ago

Overcast
Overcast
59.6 °F
Feels Like 59.6 °F
N
1.0
Wind Variable Wind from WSW

Today
High -- | Low -- °F
--% Chance of Precip.
Yesterday
High -- | Low -- °F
Precip. -- in
5:45 AM 7:56 PM
First Quarter, 58% visible
Pressure 30.00 in
Visibility 10.0 miles
Clouds Overcast 1700 ft
Dew Point 54 °F
Humidity 81%
Rainfall 0.00 in
Snow Depth Not available.
UV 0 out of 12
Pollen 4.70 out of 12
Air Quality Not available.
Flu Activity Sporadic
METAR KSMO 261251Z AUTO 00000KT 10SM OVC017 16/12 A3000 RMK AO2 SLP157 T01610117 $

More Conditions Fewer Conditions

Pressure 30.00 in
Visibility 10.0 miles
Clouds Overcast 1700 ft
Dew Point 54 °F
Humidity 81%
Rainfall 0.00 in
Snow Depth Not available.
UV 0 out of 12
Pollen 4.70 out of 12
Air Quality Not available.
Flu Activity Sporadic
METAR KSMO 261251Z AUTO 00000KT 10SM OVC017 16/12 A3000 RMK AO2 SLP157 T01610117 $

More Conditions Fewer Conditions

10-Day Weather Forecast

Almanac

Astronomy

May. 26, 2015 Rise Set
Actual Time
Civil Twilight
Nautical Twilight
Astronomical Twilight
Moon
Length of Visible Light
Length of Day
Tomorrow will be .
, % of the Moon is Illuminated

Today's Extremes

State Highs State Lows

Community

WunderPhotos

Upload Photos

1,824,336 photos uploaded!

WunderBlogs® & News

Nearby

Air Quality

  Air Quality AQ Index Pollutant
Not available.

Snow Depth

Station Depth Elevation

Earthquake Activity

City Distance Mag. Time & Date
Minimum magnitude displayed is 2.5.

Coastal Water Temperatures

Place Temperature

Stations

Nearby Weather Stations

Station Location Temp. Windchill Dew Point Humidity Wind Precip. Elev Updated Type